createdAt,value
2023-01-22T00:06:48.301Z,17.00
2023-01-22T00:16:54.101Z,17.00
2023-01-22T00:27:00.047Z,15.40
2023-01-22T00:37:05.844Z,16.20
2023-01-22T00:47:11.708Z,16.00
2023-01-22T00:57:21.806Z,15.20
2023-01-22T01:07:27.948Z,15.10
2023-01-22T01:17:33.811Z,14.60
2023-01-22T01:27:39.724Z,15.00
2023-01-22T01:37:45.502Z,12.20
2023-01-22T01:47:54.676Z,14.10
2023-01-22T01:58:06.213Z,11.70
2023-01-22T02:08:12.484Z,11.70
2023-01-22T02:18:18.425Z,12.00
2023-01-22T02:28:24.693Z,12.40
2023-01-22T02:38:30.499Z,14.70
2023-01-22T02:48:36.438Z,15.10
2023-01-22T02:58:42.426Z,15.60
2023-01-22T03:08:48.447Z,16.90
2023-01-22T03:19:11.833Z,17.60
2023-01-22T03:29:17.743Z,17.10
2023-01-22T03:39:23.672Z,16.40
2023-01-22T03:49:29.572Z,16.20
2023-01-22T03:59:35.489Z,15.70
2023-01-22T04:09:41.269Z,16.10
2023-01-22T04:19:47.178Z,16.30
2023-01-22T04:29:52.984Z,16.70
2023-01-22T04:39:58.611Z,16.80
2023-01-22T04:50:04.995Z,16.80
2023-01-22T05:00:14.330Z,14.30
2023-01-22T05:10:21.216Z,14.10
2023-01-22T05:20:27.562Z,12.20
2023-01-22T05:30:33.224Z,10.10
2023-01-22T05:40:39.231Z,9.80
2023-01-22T05:50:45.020Z,10.20
2023-01-22T06:00:53.056Z,11.70
2023-01-22T06:11:06.351Z,10.70
2023-01-22T06:21:11.992Z,11.30
2023-01-22T06:31:17.888Z,12.00
2023-01-22T06:41:24.323Z,11.50
2023-01-22T06:51:31.931Z,11.60
2023-01-22T07:01:37.918Z,11.90
2023-01-22T07:11:43.823Z,9.90
2023-01-22T07:21:49.803Z,10.80
2023-01-22T07:31:55.374Z,12.70
2023-01-22T07:42:01.666Z,11.40
2023-01-22T07:52:07.760Z,11.30
2023-01-22T08:02:15.665Z,11.90
2023-01-22T08:12:21.720Z,11.30
2023-01-22T08:22:27.557Z,11.60
2023-01-22T08:32:33.307Z,11.20
2023-01-22T08:42:39.205Z,12.10
2023-01-22T08:52:44.832Z,11.90
2023-01-22T09:02:50.671Z,11.70
2023-01-22T09:12:59.427Z,11.80
2023-01-22T09:23:05.445Z,13.50
2023-01-22T09:33:11.350Z,15.10
2023-01-22T09:43:28.836Z,14.10
2023-01-22T09:53:36.040Z,14.20
2023-01-22T10:03:45.763Z,15.40
2023-01-22T10:13:55.482Z,17.70
2023-01-22T10:24:01.885Z,13.60
2023-01-22T10:34:15.484Z,15.10
2023-01-22T10:44:24.073Z,15.20
2023-01-22T10:54:34.033Z,11.40
2023-01-22T11:04:39.879Z,11.90
2023-01-22T11:14:47.035Z,12.60
2023-01-22T11:24:52.979Z,12.90
2023-01-22T11:35:11.612Z,14.90
2023-01-22T11:45:37.793Z,15.50
2023-01-22T11:56:10.837Z,16.10
2023-01-22T12:06:36.732Z,18.60
2023-01-22T12:16:51.241Z,17.20
2023-01-22T12:27:02.850Z,19.40
2023-01-22T12:37:13.423Z,19.70
2023-01-22T12:47:22.865Z,20.60
2023-01-22T12:57:37.975Z,19.70
2023-01-22T13:07:43.813Z,21.30
2023-01-22T13:18:06.516Z,20.80
2023-01-22T13:28:18.959Z,19.70
2023-01-22T13:38:26.534Z,22.20
2023-01-22T13:48:32.803Z,22.50
2023-01-22T13:58:49.365Z,23.60
2023-01-22T14:08:57.204Z,25.50
2023-01-22T14:19:04.939Z,22.80
2023-01-22T14:29:10.956Z,22.00
2023-01-22T14:39:18.751Z,23.00
2023-01-22T14:49:24.940Z,20.90
2023-01-22T14:59:30.862Z,23.00
2023-01-22T15:09:36.742Z,23.60
2023-01-22T15:19:42.494Z,22.10
2023-01-22T15:29:49.488Z,25.00
2023-01-22T15:39:55.353Z,25.30
2023-01-22T15:50:01.308Z,22.60
2023-01-22T16:00:11.470Z,21.60
2023-01-22T16:10:17.993Z,21.30
2023-01-22T16:20:24.187Z,21.20
2023-01-22T16:30:30.170Z,26.40
2023-01-22T16:40:36.110Z,26.00
2023-01-22T16:50:41.912Z,24.10
2023-01-22T17:00:49.671Z,25.30
2023-01-22T17:10:55.752Z,25.30
2023-01-22T17:21:06.648Z,22.80
2023-01-22T17:31:15.484Z,25.30
2023-01-22T17:41:23.282Z,24.40
2023-01-22T17:51:30.407Z,23.10
2023-01-22T18:01:38.967Z,22.60
2023-01-22T18:11:45.411Z,23.20
2023-01-22T18:31:56.337Z,21.10
2023-01-22T18:42:02.344Z,20.50
2023-01-22T18:52:08.379Z,22.60
2023-01-22T19:02:17.416Z,22.50
2023-01-22T19:12:23.306Z,20.30
2023-01-22T19:22:29.083Z,20.10
2023-01-22T19:32:37.941Z,20.40
2023-01-22T19:42:46.820Z,20.10
2023-01-22T19:52:52.510Z,17.80
2023-01-22T20:02:58.140Z,19.50
2023-01-22T20:13:03.903Z,19.00
2023-01-22T20:23:09.967Z,18.70
2023-01-22T20:33:15.834Z,22.10
2023-01-22T20:43:22.081Z,20.80
2023-01-22T20:53:29.975Z,18.10
2023-01-22T21:03:36.402Z,20.60
2023-01-22T21:13:42.598Z,21.60
2023-01-22T21:23:49.918Z,22.00
2023-01-22T21:34:02.587Z,19.60
2023-01-22T21:44:28.649Z,20.40
2023-01-22T21:54:36.741Z,18.30
2023-01-22T22:04:42.816Z,18.20
2023-01-22T22:14:48.731Z,17.60
2023-01-22T22:24:55.079Z,16.00
2023-01-22T22:35:00.832Z,16.90
2023-01-22T22:45:07.856Z,16.80
2023-01-22T22:55:13.800Z,17.70
2023-01-22T23:05:19.930Z,17.00
2023-01-22T23:15:27.705Z,18.50
2023-01-22T23:25:33.676Z,18.50
2023-01-22T23:35:39.548Z,21.00
2023-01-22T23:45:45.385Z,20.30
2023-01-22T23:55:51.052Z,18.20
